sensor_id;sensor_type;location;lat;lon;timestamp;P1;durP1;ratioP1;P2;durP2;ratioP2
11777;SDS011;5946;51.770;8.548;2022-10-20T00:01:31;12.13;;;7.27;;
11777;SDS011;5946;51.770;8.548;2022-10-20T00:03:57;10.63;;;7.43;;
11777;SDS011;5946;51.770;8.548;2022-10-20T00:06:27;8.40;;;7.50;;
11777;SDS011;5946;51.770;8.548;2022-10-20T00:08:54;10.10;;;8.03;;
11777;SDS011;5946;51.770;8.548;2022-10-20T00:11:21;11.13;;;8.07;;
11777;SDS011;5946;51.770;8.548;2022-10-20T00:13:47;8.70;;;7.77;;
11777;SDS011;5946;51.770;8.548;2022-10-20T00:16:14;12.83;;;8.70;;
11777;SDS011;5946;51.770;8.548;2022-10-20T00:18:41;13.90;;;9.23;;
11777;SDS011;5946;51.770;8.548;2022-10-20T00:21:08;12.50;;;9.23;;
11777;SDS011;5946;51.770;8.548;2022-10-20T00:23:34;10.50;;;9.00;;
11777;SDS011;5946;51.770;8.548;2022-10-20T00:26:04;12.87;;;9.10;;
11777;SDS011;5946;51.770;8.548;2022-10-20T00:28:31;9.87;;;8.87;;
11777;SDS011;5946;51.770;8.548;2022-10-20T00:30:57;14.00;;;10.20;;
11777;SDS011;5946;51.770;8.548;2022-10-20T00:33:23;10.83;;;9.40;;
11777;SDS011;5946;51.770;8.548;2022-10-20T00:35:49;10.53;;;9.43;;
11777;SDS011;5946;51.770;8.548;2022-10-20T00:38:15;13.03;;;10.50;;
11777;SDS011;5946;51.770;8.548;2022-10-20T00:40:41;12.23;;;9.97;;
11777;SDS011;5946;51.770;8.548;2022-10-20T00:43:13;14.33;;;10.53;;
11777;SDS011;5946;51.770;8.548;2022-10-20T00:45:40;15.60;;;10.90;;
11777;SDS011;5946;51.770;8.548;2022-10-20T00:48:11;14.20;;;11.53;;
11777;SDS011;5946;51.770;8.548;2022-10-20T00:50:38;16.27;;;12.03;;
11777;SDS011;5946;51.770;8.548;2022-10-20T00:53:06;18.40;;;12.20;;
11777;SDS011;5946;51.770;8.548;2022-10-20T00:55:33;16.00;;;12.20;;
11777;SDS011;5946;51.770;8.548;2022-10-20T00:58:00;14.30;;;12.77;;
11777;SDS011;5946;51.770;8.548;2022-10-20T01:00:27;16.27;;;13.43;;
11777;SDS011;5946;51.770;8.548;2022-10-20T01:02:54;14.60;;;12.13;;
11777;SDS011;5946;51.770;8.548;2022-10-20T01:05:20;15.77;;;12.70;;
11777;SDS011;5946;51.770;8.548;2022-10-20T01:07:46;15.63;;;12.50;;
11777;SDS011;5946;51.770;8.548;2022-10-20T01:10:12;14.90;;;12.23;;
11777;SDS011;5946;51.770;8.548;2022-10-20T01:12:43;16.57;;;12.13;;
11777;SDS011;5946;51.770;8.548;2022-10-20T01:18:00;14.20;;;12.30;;
11777;SDS011;5946;51.770;8.548;2022-10-20T01:20:41;16.40;;;13.40;;
11777;SDS011;5946;51.770;8.548;2022-10-20T01:30:50;16.00;;;13.27;;
11777;SDS011;5946;51.770;8.548;2022-10-20T01:33:24;16.90;;;13.40;;
11777;SDS011;5946;51.770;8.548;2022-10-20T01:35:53;18.13;;;13.23;;
11777;SDS011;5946;51.770;8.548;2022-10-20T01:38:42;17.00;;;14.17;;
11777;SDS011;5946;51.770;8.548;2022-10-20T01:41:13;19.30;;;12.70;;
11777;SDS011;5946;51.770;8.548;2022-10-20T01:43:42;13.93;;;12.33;;
11777;SDS011;5946;51.770;8.548;2022-10-20T01:46:09;17.77;;;13.63;;
11777;SDS011;5946;51.770;8.548;2022-10-20T01:48:36;14.17;;;12.53;;
11777;SDS011;5946;51.770;8.548;2022-10-20T01:51:04;19.93;;;12.03;;
11777;SDS011;5946;51.770;8.548;2022-10-20T01:53:30;16.10;;;12.30;;
11777;SDS011;5946;51.770;8.548;2022-10-20T01:55:57;17.23;;;12.20;;
11777;SDS011;5946;51.770;8.548;2022-10-20T02:00:53;15.57;;;12.10;;
11777;SDS011;5946;51.770;8.548;2022-10-20T02:03:30;13.30;;;11.50;;
11777;SDS011;5946;51.770;8.548;2022-10-20T02:06:07;15.33;;;12.20;;
11777;SDS011;5946;51.770;8.548;2022-10-20T02:11:01;14.27;;;12.77;;
11777;SDS011;5946;51.770;8.548;2022-10-20T02:13:28;15.27;;;11.93;;
11777;SDS011;5946;51.770;8.548;2022-10-20T02:15:56;16.00;;;12.57;;
11777;SDS011;5946;51.770;8.548;2022-10-20T02:18:25;14.87;;;12.00;;
11777;SDS011;5946;51.770;8.548;2022-10-20T02:20:53;14.90;;;12.63;;
11777;SDS011;5946;51.770;8.548;2022-10-20T02:23:19;15.20;;;12.20;;
11777;SDS011;5946;51.770;8.548;2022-10-20T02:25:46;17.67;;;11.67;;
11777;SDS011;5946;51.770;8.548;2022-10-20T02:28:13;16.83;;;12.10;;
11777;SDS011;5946;51.770;8.548;2022-10-20T02:30:40;15.67;;;13.03;;
11777;SDS011;5946;51.770;8.548;2022-10-20T02:33:06;16.40;;;13.10;;
11777;SDS011;5946;51.770;8.548;2022-10-20T02:35:33;14.43;;;12.67;;
11777;SDS011;5946;51.770;8.548;2022-10-20T02:37:59;18.37;;;12.87;;
11777;SDS011;5946;51.770;8.548;2022-10-20T02:40:26;15.10;;;12.77;;
11777;SDS011;5946;51.770;8.548;2022-10-20T02:42:52;15.47;;;13.07;;
11777;SDS011;5946;51.770;8.548;2022-10-20T02:45:18;20.87;;;13.70;;
11777;SDS011;5946;51.770;8.548;2022-10-20T02:47:44;18.97;;;13.87;;
11777;SDS011;5946;51.770;8.548;2022-10-20T02:50:10;14.13;;;12.53;;
11777;SDS011;5946;51.770;8.548;2022-10-20T02:52:36;17.97;;;13.83;;
11777;SDS011;5946;51.770;8.548;2022-10-20T02:55:02;18.03;;;13.70;;
11777;SDS011;5946;51.770;8.548;2022-10-20T02:57:28;18.43;;;13.30;;
11777;SDS011;5946;51.770;8.548;2022-10-20T02:59:54;18.50;;;14.40;;
11777;SDS011;5946;51.770;8.548;2022-10-20T03:02:20;17.80;;;13.50;;
11777;SDS011;5946;51.770;8.548;2022-10-20T03:04:46;16.23;;;14.00;;
11777;SDS011;5946;51.770;8.548;2022-10-20T03:07:12;18.37;;;14.50;;
11777;SDS011;5946;51.770;8.548;2022-10-20T03:09:39;15.00;;;13.40;;
11777;SDS011;5946;51.770;8.548;2022-10-20T03:12:05;15.93;;;14.03;;
11777;SDS011;5946;51.770;8.548;2022-10-20T03:14:30;17.50;;;13.57;;
11777;SDS011;5946;51.770;8.548;2022-10-20T03:16:56;15.77;;;13.73;;
11777;SDS011;5946;51.770;8.548;2022-10-20T03:19:22;18.23;;;13.03;;
11777;SDS011;5946;51.770;8.548;2022-10-20T03:21:48;17.20;;;14.50;;
11777;SDS011;5946;51.770;8.548;2022-10-20T03:24:14;17.93;;;14.70;;
11777;SDS011;5946;51.770;8.548;2022-10-20T03:26:41;19.33;;;14.43;;
11777;SDS011;5946;51.770;8.548;2022-10-20T03:29:06;16.30;;;14.53;;
11777;SDS011;5946;51.770;8.548;2022-10-20T03:31:32;18.53;;;14.20;;
11777;SDS011;5946;51.770;8.548;2022-10-20T03:33:58;19.50;;;14.17;;
11777;SDS011;5946;51.770;8.548;2022-10-20T03:36:24;16.37;;;14.67;;
11777;SDS011;5946;51.770;8.548;2022-10-20T03:38:50;16.50;;;14.13;;
11777;SDS011;5946;51.770;8.548;2022-10-20T03:41:16;18.30;;;13.37;;
11777;SDS011;5946;51.770;8.548;2022-10-20T03:43:42;24.10;;;14.93;;
11777;SDS011;5946;51.770;8.548;2022-10-20T03:46:09;17.50;;;14.03;;
11777;SDS011;5946;51.770;8.548;2022-10-20T03:48:35;16.70;;;13.60;;
11777;SDS011;5946;51.770;8.548;2022-10-20T03:51:01;17.30;;;14.10;;
11777;SDS011;5946;51.770;8.548;2022-10-20T03:53:28;17.50;;;14.13;;
11777;SDS011;5946;51.770;8.548;2022-10-20T03:55:54;15.70;;;13.73;;
11777;SDS011;5946;51.770;8.548;2022-10-20T03:58:20;21.53;;;13.70;;
11777;SDS011;5946;51.770;8.548;2022-10-20T04:00:46;17.80;;;13.73;;
11777;SDS011;5946;51.770;8.548;2022-10-20T04:03:12;14.50;;;13.00;;
11777;SDS011;5946;51.770;8.548;2022-10-20T04:05:38;17.90;;;13.33;;
11777;SDS011;5946;51.770;8.548;2022-10-20T04:08:04;15.90;;;12.90;;
11777;SDS011;5946;51.770;8.548;2022-10-20T04:10:30;17.90;;;13.30;;
11777;SDS011;5946;51.770;8.548;2022-10-20T04:12:57;17.43;;;13.43;;
11777;SDS011;5946;51.770;8.548;2022-10-20T04:15:23;15.87;;;13.23;;
11777;SDS011;5946;51.770;8.548;2022-10-20T04:17:49;16.00;;;12.63;;
11777;SDS011;5946;51.770;8.548;2022-10-20T04:20:15;16.00;;;13.00;;
11777;SDS011;5946;51.770;8.548;2022-10-20T04:22:41;17.70;;;13.17;;
11777;SDS011;5946;51.770;8.548;2022-10-20T04:25:07;15.77;;;13.10;;
11777;SDS011;5946;51.770;8.548;2022-10-20T04:27:33;15.87;;;13.23;;
11777;SDS011;5946;51.770;8.548;2022-10-20T04:29:59;18.50;;;13.40;;
11777;SDS011;5946;51.770;8.548;2022-10-20T04:32:25;17.03;;;13.17;;
11777;SDS011;5946;51.770;8.548;2022-10-20T04:34:51;17.23;;;13.83;;
11777;SDS011;5946;51.770;8.548;2022-10-20T04:37:17;17.07;;;12.90;;
11777;SDS011;5946;51.770;8.548;2022-10-20T04:39:43;16.30;;;12.80;;
11777;SDS011;5946;51.770;8.548;2022-10-20T04:42:09;16.07;;;12.80;;
11777;SDS011;5946;51.770;8.548;2022-10-20T04:44:35;14.77;;;13.27;;
11777;SDS011;5946;51.770;8.548;2022-10-20T04:47:01;14.23;;;12.73;;
11777;SDS011;5946;51.770;8.548;2022-10-20T04:49:27;17.03;;;13.57;;
11777;SDS011;5946;51.770;8.548;2022-10-20T04:51:53;16.23;;;13.00;;
11777;SDS011;5946;51.770;8.548;2022-10-20T04:54:19;15.60;;;13.07;;
11777;SDS011;5946;51.770;8.548;2022-10-20T04:56:45;18.47;;;13.87;;
11777;SDS011;5946;51.770;8.548;2022-10-20T04:59:11;14.50;;;12.40;;
11777;SDS011;5946;51.770;8.548;2022-10-20T05:01:37;17.40;;;13.37;;
11777;SDS011;5946;51.770;8.548;2022-10-20T05:04:03;18.73;;;13.63;;
11777;SDS011;5946;51.770;8.548;2022-10-20T05:06:30;14.63;;;12.97;;
11777;SDS011;5946;51.770;8.548;2022-10-20T05:08:57;18.23;;;12.63;;
11777;SDS011;5946;51.770;8.548;2022-10-20T05:11:24;15.07;;;13.43;;
11777;SDS011;5946;51.770;8.548;2022-10-20T05:13:50;14.80;;;13.00;;
11777;SDS011;5946;51.770;8.548;2022-10-20T05:16:17;17.20;;;12.90;;
11777;SDS011;5946;51.770;8.548;2022-10-20T05:18:43;17.57;;;13.40;;
11777;SDS011;5946;51.770;8.548;2022-10-20T05:21:14;19.37;;;12.20;;
11777;SDS011;5946;51.770;8.548;2022-10-20T05:23:40;17.03;;;13.03;;
11777;SDS011;5946;51.770;8.548;2022-10-20T05:26:08;17.33;;;12.33;;
11777;SDS011;5946;51.770;8.548;2022-10-20T05:28:34;15.53;;;12.23;;
11777;SDS011;5946;51.770;8.548;2022-10-20T05:31:04;16.73;;;11.63;;
11777;SDS011;5946;51.770;8.548;2022-10-20T05:33:31;14.13;;;12.17;;
11777;SDS011;5946;51.770;8.548;2022-10-20T05:35:57;16.60;;;11.87;;
11777;SDS011;5946;51.770;8.548;2022-10-20T05:38:23;15.87;;;12.47;;
11777;SDS011;5946;51.770;8.548;2022-10-20T05:40:49;14.60;;;12.17;;
11777;SDS011;5946;51.770;8.548;2022-10-20T05:43:15;12.07;;;10.53;;
11777;SDS011;5946;51.770;8.548;2022-10-20T05:45:41;17.13;;;11.57;;
11777;SDS011;5946;51.770;8.548;2022-10-20T05:48:07;14.30;;;11.53;;
11777;SDS011;5946;51.770;8.548;2022-10-20T05:50:33;16.50;;;12.13;;
11777;SDS011;5946;51.770;8.548;2022-10-20T05:52:59;17.57;;;10.97;;
11777;SDS011;5946;51.770;8.548;2022-10-20T05:55:25;15.23;;;11.00;;
11777;SDS011;5946;51.770;8.548;2022-10-20T05:57:51;13.27;;;10.93;;
11777;SDS011;5946;51.770;8.548;2022-10-20T06:00:17;14.83;;;11.27;;
11777;SDS011;5946;51.770;8.548;2022-10-20T06:02:53;12.97;;;11.00;;
11777;SDS011;5946;51.770;8.548;2022-10-20T06:05:19;13.37;;;9.50;;
11777;SDS011;5946;51.770;8.548;2022-10-20T06:07:45;12.13;;;10.70;;
11777;SDS011;5946;51.770;8.548;2022-10-20T06:10:11;14.10;;;10.93;;
11777;SDS011;5946;51.770;8.548;2022-10-20T06:12:37;13.00;;;10.30;;
11777;SDS011;5946;51.770;8.548;2022-10-20T06:15:03;15.60;;;10.90;;
11777;SDS011;5946;51.770;8.548;2022-10-20T06:17:29;14.50;;;11.03;;
11777;SDS011;5946;51.770;8.548;2022-10-20T06:19:55;12.80;;;9.97;;
11777;SDS011;5946;51.770;8.548;2022-10-20T06:22:21;12.07;;;10.00;;
11777;SDS011;5946;51.770;8.548;2022-10-20T06:24:47;12.17;;;10.20;;
11777;SDS011;5946;51.770;8.548;2022-10-20T06:27:13;11.83;;;9.80;;
11777;SDS011;5946;51.770;8.548;2022-10-20T06:29:39;12.33;;;10.27;;
11777;SDS011;5946;51.770;8.548;2022-10-20T06:32:04;14.97;;;10.00;;
11777;SDS011;5946;51.770;8.548;2022-10-20T06:34:30;18.03;;;10.37;;
11777;SDS011;5946;51.770;8.548;2022-10-20T06:36:56;12.17;;;10.23;;
11777;SDS011;5946;51.770;8.548;2022-10-20T06:39:25;15.97;;;10.70;;
11777;SDS011;5946;51.770;8.548;2022-10-20T06:41:52;14.93;;;10.63;;
11777;SDS011;5946;51.770;8.548;2022-10-20T06:44:19;17.70;;;11.47;;
11777;SDS011;5946;51.770;8.548;2022-10-20T06:46:45;15.53;;;10.27;;
11777;SDS011;5946;51.770;8.548;2022-10-20T06:49:12;11.80;;;10.40;;
11777;SDS011;5946;51.770;8.548;2022-10-20T06:51:38;12.90;;;9.87;;
11777;SDS011;5946;51.770;8.548;2022-10-20T06:54:04;15.73;;;10.70;;
11777;SDS011;5946;51.770;8.548;2022-10-20T06:56:31;12.80;;;10.17;;
11777;SDS011;5946;51.770;8.548;2022-10-20T06:58:58;13.10;;;10.60;;
11777;SDS011;5946;51.770;8.548;2022-10-20T07:01:28;14.40;;;10.27;;
11777;SDS011;5946;51.770;8.548;2022-10-20T07:03:55;11.83;;;10.50;;
11777;SDS011;5946;51.770;8.548;2022-10-20T07:06:22;16.10;;;10.93;;
11777;SDS011;5946;51.770;8.548;2022-10-20T07:08:49;14.13;;;10.67;;
11777;SDS011;5946;51.770;8.548;2022-10-20T07:11:18;13.20;;;10.67;;
11777;SDS011;5946;51.770;8.548;2022-10-20T07:13:44;13.53;;;11.07;;
11777;SDS011;5946;51.770;8.548;2022-10-20T07:16:12;13.63;;;10.10;;
11777;SDS011;5946;51.770;8.548;2022-10-20T07:18:38;18.87;;;11.10;;
11777;SDS011;5946;51.770;8.548;2022-10-20T07:21:05;14.93;;;11.57;;
11777;SDS011;5946;51.770;8.548;2022-10-20T07:23:31;11.70;;;10.50;;
11777;SDS011;5946;51.770;8.548;2022-10-20T07:28:30;14.50;;;11.77;;
11777;SDS011;5946;51.770;8.548;2022-10-20T07:30:56;13.17;;;10.93;;
11777;SDS011;5946;51.770;8.548;2022-10-20T07:33:23;16.10;;;11.53;;
11777;SDS011;5946;51.770;8.548;2022-10-20T07:35:49;15.63;;;11.30;;
11777;SDS011;5946;51.770;8.548;2022-10-20T07:38:18;14.47;;;11.57;;
11777;SDS011;5946;51.770;8.548;2022-10-20T07:40:44;12.70;;;10.77;;
11777;SDS011;5946;51.770;8.548;2022-10-20T07:43:10;16.30;;;11.10;;
11777;SDS011;5946;51.770;8.548;2022-10-20T07:45:36;13.77;;;10.97;;
11777;SDS011;5946;51.770;8.548;2022-10-20T07:48:02;14.67;;;11.40;;
11777;SDS011;5946;51.770;8.548;2022-10-20T07:50:30;14.63;;;11.07;;
11777;SDS011;5946;51.770;8.548;2022-10-20T07:52:56;13.87;;;10.80;;
11777;SDS011;5946;51.770;8.548;2022-10-20T07:55:22;12.50;;;10.40;;
11777;SDS011;5946;51.770;8.548;2022-10-20T07:57:49;11.93;;;10.60;;
11777;SDS011;5946;51.770;8.548;2022-10-20T08:00:15;14.23;;;10.50;;
11777;SDS011;5946;51.770;8.548;2022-10-20T08:02:41;11.50;;;10.30;;
11777;SDS011;5946;51.770;8.548;2022-10-20T08:05:07;13.23;;;10.30;;
11777;SDS011;5946;51.770;8.548;2022-10-20T08:07:33;13.03;;;9.87;;
11777;SDS011;5946;51.770;8.548;2022-10-20T08:09:59;11.20;;;9.97;;
11777;SDS011;5946;51.770;8.548;2022-10-20T08:12:25;14.27;;;10.30;;
11777;SDS011;5946;51.770;8.548;2022-10-20T08:14:51;13.40;;;9.77;;
11777;SDS011;5946;51.770;8.548;2022-10-20T08:17:17;11.73;;;9.40;;
11777;SDS011;5946;51.770;8.548;2022-10-20T08:19:43;12.50;;;9.73;;
11777;SDS011;5946;51.770;8.548;2022-10-20T08:22:09;12.37;;;9.60;;
11777;SDS011;5946;51.770;8.548;2022-10-20T08:24:35;13.13;;;9.50;;
11777;SDS011;5946;51.770;8.548;2022-10-20T08:27:01;25.17;;;10.50;;
11777;SDS011;5946;51.770;8.548;2022-10-20T08:29:27;12.07;;;9.90;;
11777;SDS011;5946;51.770;8.548;2022-10-20T08:31:53;10.70;;;9.60;;
11777;SDS011;5946;51.770;8.548;2022-10-20T08:34:19;11.67;;;9.47;;
11777;SDS011;5946;51.770;8.548;2022-10-20T08:36:45;13.90;;;10.23;;
11777;SDS011;5946;51.770;8.548;2022-10-20T08:39:11;13.10;;;9.67;;
11777;SDS011;5946;51.770;8.548;2022-10-20T08:41:37;18.13;;;8.67;;
11777;SDS011;5946;51.770;8.548;2022-10-20T08:44:05;11.70;;;9.90;;
11777;SDS011;5946;51.770;8.548;2022-10-20T08:46:35;11.43;;;9.33;;
11777;SDS011;5946;51.770;8.548;2022-10-20T08:49:02;10.37;;;9.20;;
11777;SDS011;5946;51.770;8.548;2022-10-20T08:51:30;9.83;;;8.60;;
11777;SDS011;5946;51.770;8.548;2022-10-20T08:53:57;11.47;;;9.70;;
11777;SDS011;5946;51.770;8.548;2022-10-20T08:56:24;10.43;;;9.20;;
11777;SDS011;5946;51.770;8.548;2022-10-20T08:58:51;14.37;;;8.70;;
11777;SDS011;5946;51.770;8.548;2022-10-20T09:01:22;9.87;;;8.87;;
11777;SDS011;5946;51.770;8.548;2022-10-20T09:03:50;11.43;;;9.53;;
11777;SDS011;5946;51.770;8.548;2022-10-20T09:06:17;13.57;;;9.10;;
11777;SDS011;5946;51.770;8.548;2022-10-20T09:08:43;28.83;;;21.67;;
11777;SDS011;5946;51.770;8.548;2022-10-20T09:11:13;48.67;;;40.77;;
11777;SDS011;5946;51.770;8.548;2022-10-20T09:13:40;10.90;;;9.80;;
11777;SDS011;5946;51.770;8.548;2022-10-20T09:16:51;10.97;;;8.83;;
11777;SDS011;5946;51.770;8.548;2022-10-20T09:18:53;9.93;;;8.33;;
11777;SDS011;5946;51.770;8.548;2022-10-20T09:21:20;13.00;;;8.47;;
11777;SDS011;5946;51.770;8.548;2022-10-20T09:23:47;10.07;;;9.07;;
11777;SDS011;5946;51.770;8.548;2022-10-20T09:26:17;11.17;;;8.53;;
11777;SDS011;5946;51.770;8.548;2022-10-20T09:28:48;11.87;;;9.03;;
11777;SDS011;5946;51.770;8.548;2022-10-20T09:31:31;10.47;;;8.60;;
11777;SDS011;5946;51.770;8.548;2022-10-20T09:33:57;12.43;;;8.87;;
11777;SDS011;5946;51.770;8.548;2022-10-20T09:36:25;9.77;;;8.40;;
11777;SDS011;5946;51.770;8.548;2022-10-20T09:38:53;12.73;;;8.43;;
11777;SDS011;5946;51.770;8.548;2022-10-20T09:41:20;11.73;;;8.53;;
11777;SDS011;5946;51.770;8.548;2022-10-20T09:43:52;11.00;;;8.80;;
11777;SDS011;5946;51.770;8.548;2022-10-20T09:46:20;11.77;;;8.97;;
11777;SDS011;5946;51.770;8.548;2022-10-20T09:48:47;11.90;;;9.07;;
11777;SDS011;5946;51.770;8.548;2022-10-20T09:51:14;13.67;;;8.70;;
11777;SDS011;5946;51.770;8.548;2022-10-20T09:53:57;10.97;;;8.70;;
11777;SDS011;5946;51.770;8.548;2022-10-20T09:56:24;9.83;;;8.83;;
11777;SDS011;5946;51.770;8.548;2022-10-20T09:58:51;9.53;;;8.57;;
11777;SDS011;5946;51.770;8.548;2022-10-20T10:01:17;11.50;;;8.40;;
11777;SDS011;5946;51.770;8.548;2022-10-20T10:03:44;9.37;;;8.10;;
11777;SDS011;5946;51.770;8.548;2022-10-20T10:06:45;10.10;;;8.47;;
11777;SDS011;5946;51.770;8.548;2022-10-20T10:11:56;11.27;;;8.40;;
11777;SDS011;5946;51.770;8.548;2022-10-20T10:14:22;10.70;;;7.77;;
11777;SDS011;5946;51.770;8.548;2022-10-20T10:16:48;10.60;;;7.83;;
11777;SDS011;5946;51.770;8.548;2022-10-20T10:19:16;8.83;;;7.53;;
11777;SDS011;5946;51.770;8.548;2022-10-20T10:21:43;13.00;;;8.33;;
11777;SDS011;5946;51.770;8.548;2022-10-20T10:26:54;9.57;;;7.60;;
11777;SDS011;5946;51.770;8.548;2022-10-20T10:31:57;10.53;;;7.90;;
11777;SDS011;5946;51.770;8.548;2022-10-20T10:37:12;15.73;;;8.50;;
11777;SDS011;5946;51.770;8.548;2022-10-20T10:39:38;12.07;;;7.97;;
11777;SDS011;5946;51.770;8.548;2022-10-20T10:47:02;10.23;;;8.23;;
11777;SDS011;5946;51.770;8.548;2022-10-20T10:49:46;11.43;;;7.97;;
11777;SDS011;5946;51.770;8.548;2022-10-20T10:52:42;8.63;;;7.60;;
11777;SDS011;5946;51.770;8.548;2022-10-20T10:57:52;12.60;;;8.30;;
11777;SDS011;5946;51.770;8.548;2022-10-20T11:01:23;9.40;;;8.40;;
11777;SDS011;5946;51.770;8.548;2022-10-20T11:03:33;9.63;;;7.83;;
11777;SDS011;5946;51.770;8.548;2022-10-20T11:06:05;11.90;;;8.00;;
11777;SDS011;5946;51.770;8.548;2022-10-20T11:08:52;9.23;;;7.40;;
11777;SDS011;5946;51.770;8.548;2022-10-20T11:17:09;10.83;;;8.53;;
11777;SDS011;5946;51.770;8.548;2022-10-20T11:24:58;10.53;;;8.53;;
11777;SDS011;5946;51.770;8.548;2022-10-20T11:27:32;14.13;;;8.20;;
11777;SDS011;5946;51.770;8.548;2022-10-20T11:30:03;11.83;;;8.93;;
11777;SDS011;5946;51.770;8.548;2022-10-20T11:33:08;14.83;;;8.60;;
11777;SDS011;5946;51.770;8.548;2022-10-20T11:35:30;14.77;;;8.10;;
11777;SDS011;5946;51.770;8.548;2022-10-20T11:38:06;9.37;;;8.33;;
11777;SDS011;5946;51.770;8.548;2022-10-20T11:40:39;9.70;;;8.00;;
11777;SDS011;5946;51.770;8.548;2022-10-20T11:53:52;11.03;;;7.80;;
11777;SDS011;5946;51.770;8.548;2022-10-20T11:59:05;11.47;;;8.73;;
11777;SDS011;5946;51.770;8.548;2022-10-20T12:01:36;13.17;;;8.10;;
11777;SDS011;5946;51.770;8.548;2022-10-20T12:04:17;10.27;;;8.27;;
11777;SDS011;5946;51.770;8.548;2022-10-20T12:09:32;11.03;;;8.10;;
11777;SDS011;5946;51.770;8.548;2022-10-20T12:12:44;12.90;;;8.30;;
11777;SDS011;5946;51.770;8.548;2022-10-20T12:14:52;9.53;;;8.07;;
11777;SDS011;5946;51.770;8.548;2022-10-20T12:17:33;10.37;;;8.10;;
11777;SDS011;5946;51.770;8.548;2022-10-20T12:22:44;12.03;;;8.23;;
11777;SDS011;5946;51.770;8.548;2022-10-20T12:25:16;10.73;;;8.00;;
11777;SDS011;5946;51.770;8.548;2022-10-20T12:27:43;10.20;;;8.37;;
11777;SDS011;5946;51.770;8.548;2022-10-20T12:33:07;13.13;;;9.10;;
11777;SDS011;5946;51.770;8.548;2022-10-20T12:38:18;10.53;;;8.53;;
11777;SDS011;5946;51.770;8.548;2022-10-20T12:40:57;9.80;;;8.80;;
11777;SDS011;5946;51.770;8.548;2022-10-20T12:43:30;12.67;;;9.33;;
11777;SDS011;5946;51.770;8.548;2022-10-20T12:45:58;10.50;;;8.40;;
11777;SDS011;5946;51.770;8.548;2022-10-20T12:48:27;11.50;;;9.10;;
11777;SDS011;5946;51.770;8.548;2022-10-20T12:50:54;11.87;;;9.20;;
11777;SDS011;5946;51.770;8.548;2022-10-20T12:53:27;9.77;;;8.73;;
11777;SDS011;5946;51.770;8.548;2022-10-20T12:55:58;12.97;;;9.00;;
11777;SDS011;5946;51.770;8.548;2022-10-20T12:58:25;14.83;;;9.57;;
11777;SDS011;5946;51.770;8.548;2022-10-20T13:06:00;11.30;;;10.00;;
11777;SDS011;5946;51.770;8.548;2022-10-20T13:08:30;17.27;;;10.27;;
11777;SDS011;5946;51.770;8.548;2022-10-20T13:11:31;12.43;;;9.80;;
11777;SDS011;5946;51.770;8.548;2022-10-20T13:13:47;10.60;;;9.50;;
11777;SDS011;5946;51.770;8.548;2022-10-20T13:16:16;11.07;;;9.20;;
11777;SDS011;5946;51.770;8.548;2022-10-20T13:18:44;11.37;;;9.73;;
11777;SDS011;5946;51.770;8.548;2022-10-20T13:21:17;12.33;;;9.80;;
11777;SDS011;5946;51.770;8.548;2022-10-20T13:26:35;13.43;;;10.03;;
11777;SDS011;5946;51.770;8.548;2022-10-20T13:29:02;12.30;;;9.53;;
11777;SDS011;5946;51.770;8.548;2022-10-20T13:31:38;16.37;;;10.80;;
11777;SDS011;5946;51.770;8.548;2022-10-20T13:34:14;16.47;;;10.50;;
11777;SDS011;5946;51.770;8.548;2022-10-20T13:36:50;11.17;;;9.50;;
11777;SDS011;5946;51.770;8.548;2022-10-20T13:39:26;12.87;;;9.87;;
11777;SDS011;5946;51.770;8.548;2022-10-20T13:47:39;13.87;;;10.07;;
11777;SDS011;5946;51.770;8.548;2022-10-20T13:52:40;16.97;;;10.70;;
11777;SDS011;5946;51.770;8.548;2022-10-20T13:55:07;19.10;;;10.60;;
11777;SDS011;5946;51.770;8.548;2022-10-20T13:57:42;14.93;;;10.77;;
11777;SDS011;5946;51.770;8.548;2022-10-20T14:00:21;18.70;;;10.77;;
11777;SDS011;5946;51.770;8.548;2022-10-20T14:03:21;18.90;;;11.43;;
11777;SDS011;5946;51.770;8.548;2022-10-20T14:05:40;13.43;;;10.93;;
11777;SDS011;5946;51.770;8.548;2022-10-20T14:08:07;14.03;;;10.53;;
11777;SDS011;5946;51.770;8.548;2022-10-20T14:13:13;17.53;;;10.60;;
11777;SDS011;5946;51.770;8.548;2022-10-20T14:15:43;13.03;;;10.40;;
11777;SDS011;5946;51.770;8.548;2022-10-20T14:18:17;14.03;;;10.50;;
11777;SDS011;5946;51.770;8.548;2022-10-20T14:20:51;14.13;;;10.93;;
11777;SDS011;5946;51.770;8.548;2022-10-20T14:23:18;17.43;;;12.00;;
11777;SDS011;5946;51.770;8.548;2022-10-20T14:25:44;16.63;;;11.60;;
11777;SDS011;5946;51.770;8.548;2022-10-20T14:28:12;18.33;;;11.10;;
11777;SDS011;5946;51.770;8.548;2022-10-20T14:30:42;12.83;;;11.00;;
11777;SDS011;5946;51.770;8.548;2022-10-20T14:33:11;15.60;;;12.80;;
11777;SDS011;5946;51.770;8.548;2022-10-20T14:35:39;18.83;;;12.13;;
11777;SDS011;5946;51.770;8.548;2022-10-20T14:38:14;16.70;;;12.50;;
11777;SDS011;5946;51.770;8.548;2022-10-20T14:40:41;17.73;;;12.90;;
11777;SDS011;5946;51.770;8.548;2022-10-20T14:43:17;16.50;;;12.93;;
11777;SDS011;5946;51.770;8.548;2022-10-20T14:45:51;19.87;;;13.67;;
11777;SDS011;5946;51.770;8.548;2022-10-20T14:48:17;22.10;;;15.03;;
11777;SDS011;5946;51.770;8.548;2022-10-20T14:50:43;25.90;;;15.17;;
11777;SDS011;5946;51.770;8.548;2022-10-20T14:55:41;21.53;;;16.33;;
11777;SDS011;5946;51.770;8.548;2022-10-20T15:00:52;24.17;;;18.00;;
11777;SDS011;5946;51.770;8.548;2022-10-20T15:03:37;23.90;;;18.77;;
11777;SDS011;5946;51.770;8.548;2022-10-20T15:06:03;22.97;;;18.90;;
11777;SDS011;5946;51.770;8.548;2022-10-20T15:08:29;21.93;;;18.80;;
11777;SDS011;5946;51.770;8.548;2022-10-20T15:10:55;25.73;;;19.37;;
11777;SDS011;5946;51.770;8.548;2022-10-20T15:13:26;87.93;;;58.00;;
11777;SDS011;5946;51.770;8.548;2022-10-20T15:15:53;52.57;;;40.77;;
11777;SDS011;5946;51.770;8.548;2022-10-20T15:18:20;45.33;;;33.00;;
11777;SDS011;5946;51.770;8.548;2022-10-20T15:20:48;54.30;;;42.37;;
11777;SDS011;5946;51.770;8.548;2022-10-20T15:23:15;38.73;;;28.43;;
11777;SDS011;5946;51.770;8.548;2022-10-20T15:28:14;38.37;;;25.30;;
11777;SDS011;5946;51.770;8.548;2022-10-20T15:30:44;34.93;;;24.97;;
11777;SDS011;5946;51.770;8.548;2022-10-20T15:33:11;39.07;;;24.93;;
11777;SDS011;5946;51.770;8.548;2022-10-20T15:35:37;30.70;;;23.63;;
11777;SDS011;5946;51.770;8.548;2022-10-20T15:38:08;35.20;;;24.27;;
11777;SDS011;5946;51.770;8.548;2022-10-20T15:40:37;35.47;;;27.03;;
11777;SDS011;5946;51.770;8.548;2022-10-20T15:43:03;34.93;;;27.27;;
11777;SDS011;5946;51.770;8.548;2022-10-20T15:45:31;35.23;;;28.90;;
11777;SDS011;5946;51.770;8.548;2022-10-20T15:47:58;43.80;;;32.60;;
11777;SDS011;5946;51.770;8.548;2022-10-20T15:50:25;45.57;;;34.77;;
11777;SDS011;5946;51.770;8.548;2022-10-20T15:52:50;42.67;;;30.20;;
11777;SDS011;5946;51.770;8.548;2022-10-20T15:55:31;43.90;;;28.10;;
11777;SDS011;5946;51.770;8.548;2022-10-20T15:57:57;34.03;;;26.97;;
11777;SDS011;5946;51.770;8.548;2022-10-20T16:00:24;44.60;;;28.53;;
11777;SDS011;5946;51.770;8.548;2022-10-20T16:02:50;38.20;;;28.77;;
11777;SDS011;5946;51.770;8.548;2022-10-20T16:05:17;44.93;;;29.77;;
11777;SDS011;5946;51.770;8.548;2022-10-20T16:07:43;43.43;;;29.43;;
11777;SDS011;5946;51.770;8.548;2022-10-20T16:10:10;42.20;;;29.23;;
11777;SDS011;5946;51.770;8.548;2022-10-20T16:12:37;45.00;;;29.53;;
11777;SDS011;5946;51.770;8.548;2022-10-20T16:15:05;52.53;;;36.63;;
11777;SDS011;5946;51.770;8.548;2022-10-20T16:17:31;56.33;;;37.63;;
11777;SDS011;5946;51.770;8.548;2022-10-20T16:19:57;41.73;;;29.03;;
11777;SDS011;5946;51.770;8.548;2022-10-20T16:22:23;40.77;;;28.90;;
11777;SDS011;5946;51.770;8.548;2022-10-20T16:24:50;43.50;;;28.87;;
11777;SDS011;5946;51.770;8.548;2022-10-20T16:27:16;45.70;;;29.40;;